Time;durP1;ratioP1;P1;durP2;ratioP2;P2;SDS_P1;SDS_P2;PMS_P1;PMS_P2;Temp;Humidity;BMP_temperature;BMP_pressure;BME280_temperature;BME280_humidity;BME280_pressure;Samples;Min_cycle;Max_cycle;Signal;HPM_P1;HPM_P2
2023/04/03 00:00:34;;;;;;;6.05;2.33;;;9.90;51.40;;;;;;4995792;28;20026;-73
2023/04/03 00:02:59;;;;;;;4.75;2.05;;;9.90;51.70;;;;;;4995645;28;20069;-73
2023/04/03 00:05:26;;;;;;;2.28;1.85;;;10.00;52.10;;;;;;4995938;28;20480;-73
2023/04/03 00:07:52;;;;;;;2.78;1.80;;;10.00;52.20;;;;;;4995545;28;20030;-72
2023/04/03 00:10:17;;;;;;;2.30;1.85;;;10.10;51.90;;;;;;4995764;28;20077;-72
2023/04/03 00:12:43;;;;;;;3.30;1.80;;;10.10;51.90;;;;;;4996056;28;20022;-73
2023/04/03 00:15:10;;;;;;;3.17;1.98;;;10.20;52.00;;;;;;4978338;28;20432;-73
2023/04/03 00:17:36;;;;;;;3.40;1.90;;;10.20;51.90;;;;;;4996062;28;20030;-73
2023/04/03 00:20:03;;;;;;;1.95;1.70;;;10.30;51.70;;;;;;4978318;28;20113;-73
2023/04/03 00:22:29;;;;;;;2.58;1.83;;;10.30;51.70;;;;;;4995130;28;20492;-74
2023/04/03 00:24:55;;;;;;;3.25;1.88;;;10.30;51.60;;;;;;4977759;28;20424;-72
2023/04/03 00:27:21;;;;;;;3.03;2.05;;;10.30;51.80;;;;;;4995756;28;20460;-73
2023/04/03 00:29:47;;;;;;;3.63;1.80;;;10.30;51.90;;;;;;4995753;28;20029;-73
2023/04/03 00:32:13;;;;;;;2.78;1.88;;;10.30;51.60;;;;;;4995798;28;20026;-72
2023/04/03 00:34:39;;;;;;;2.90;1.80;;;10.40;51.40;;;;;;4994899;28;20050;-72
2023/04/03 00:37:05;;;;;;;2.90;1.52;;;10.40;51.60;;;;;;4977839;28;20037;-72
2023/04/03 00:39:31;;;;;;;3.10;1.50;;;10.40;51.80;;;;;;4995341;28;20030;-72
2023/04/03 00:41:57;;;;;;;1.88;1.40;;;10.40;51.60;;;;;;4995180;28;20046;-72
2023/04/03 00:44:34;;;;;;;3.40;1.50;;;10.40;51.70;;;;;;4977816;28;20058;-73
2023/04/03 00:47:03;;;;;;;2.28;1.40;;;10.40;51.30;;;;;;4995244;28;20030;-72
2023/04/03 00:49:29;;;;;;;5.35;2.30;;;10.40;51.20;;;;;;4995065;28;20109;-72
2023/04/03 00:51:57;;;;;;;1.98;1.40;;;10.40;51.10;;;;;;4994710;28;20027;-72
2023/04/03 00:54:23;;;;;;;1.73;1.35;;;10.40;50.80;;;;;;4994776;28;20034;-73
2023/04/03 00:56:51;;;;;;;3.22;1.90;;;10.30;50.00;;;;;;4994039;28;20391;-73
2023/04/03 00:59:25;;;;;;;1.45;1.25;;;10.30;49.60;;;;;;4995446;28;20056;-72
2023/04/03 01:01:54;;;;;;;4.32;1.35;;;10.30;50.00;;;;;;4977330;28;20033;-72
2023/04/03 01:04:33;;;;;;;2.15;1.52;;;10.30;50.50;;;;;;4994797;28;20373;-72
2023/04/03 01:07:22;;;;;;;20.38;10.02;;;10.30;50.70;;;;;;4977131;28;20028;-73
2023/04/03 01:09:51;;;;;;;2.35;1.98;;;10.30;50.20;;;;;;4994744;28;20022;-72
2023/04/03 01:12:23;;;;;;;3.03;1.80;;;10.20;49.40;;;;;;4994546;28;20026;-73
2023/04/03 01:14:52;;;;;;;1.50;1.20;;;10.20;50.10;;;;;;4994643;28;20105;-72
2023/04/03 01:17:35;;;;;;;2.05;1.30;;;10.20;50.50;;;;;;4994864;28;20073;-72
2023/04/03 01:20:31;;;;;;;2.20;1.63;;;10.20;50.70;;;;;;4995132;28;20022;-72
2023/04/03 01:23:09;;;;;;;2.30;1.50;;;10.30;51.10;;;;;;4994058;28;20064;-73
2023/04/03 01:25:41;;;;;;;3.08;2.08;;;10.30;51.00;;;;;;4994454;28;20033;-72
2023/04/03 01:28:11;;;;;;;4.07;2.28;;;10.20;50.40;;;;;;4994709;28;20053;-73
2023/04/03 01:30:56;;;;;;;2.67;1.88;;;10.20;50.30;;;;;;4994371;28;20018;-73
2023/04/03 01:33:22;;;;;;;2.38;1.77;;;10.20;50.40;;;;;;4994353;28;20034;-73
2023/04/03 01:35:47;;;;;;;3.00;1.88;;;10.20;51.00;;;;;;4994159;28;20054;-73
2023/04/03 01:38:13;;;;;;;2.90;2.08;;;10.20;50.70;;;;;;4994255;28;20049;-72
2023/04/03 01:40:39;;;;;;;2.85;1.40;;;10.20;50.80;;;;;;4976995;28;20030;-72
2023/04/03 01:43:05;;;;;;;2.80;1.80;;;10.20;50.80;;;;;;4976798;28;20486;-72
2023/04/03 01:45:31;;;;;;;2.20;1.60;;;10.30;50.80;;;;;;4994493;28;20109;-73
2023/04/03 01:47:56;;;;;;;3.95;1.90;;;10.30;50.70;;;;;;4994442;28;20101;-72
2023/04/03 01:50:23;;;;;;;3.88;2.50;;;10.20;50.90;;;;;;4994174;28;20038;-72
2023/04/03 01:52:48;;;;;;;2.88;1.98;;;10.20;50.90;;;;;;4993894;28;20437;-71
2023/04/03 01:55:14;;;;;;;4.15;2.58;;;10.20;50.50;;;;;;4994147;28;20054;-73
2023/04/03 01:57:40;;;;;;;3.00;1.95;;;10.20;50.20;;;;;;4994073;28;20025;-73
2023/04/03 02:00:07;;;;;;;3.13;2.20;;;10.10;50.10;;;;;;4993968;28;20431;-72
2023/04/03 02:02:33;;;;;;;2.90;2.22;;;10.10;50.30;;;;;;4993906;28;20077;-72
2023/04/03 02:04:59;;;;;;;3.13;2.40;;;10.00;50.40;;;;;;4993981;28;20423;-72
2023/04/03 02:07:25;;;;;;;4.72;2.00;;;10.00;49.90;;;;;;4994685;28;20023;-73
2023/04/03 02:09:51;;;;;;;3.75;2.75;;;9.90;50.00;;;;;;4980588;28;20022;-73
2023/04/03 02:12:17;;;;;;;4.85;2.17;;;9.90;50.00;;;;;;4998037;28;20411;-72
2023/04/03 02:14:43;;;;;;;2.72;1.67;;;9.90;50.20;;;;;;4998242;28;20033;-72
2023/04/03 02:17:08;;;;;;;3.58;2.45;;;9.90;50.60;;;;;;4980426;28;20488;-72
2023/04/03 02:19:37;;;;;;;2.72;2.13;;;9.90;50.40;;;;;;4997928;28;20081;-72
2023/04/03 02:22:04;;;;;;;6.15;2.50;;;9.90;50.60;;;;;;4997298;28;20023;-72
2023/04/03 02:24:30;;;;;;;3.30;2.00;;;9.90;50.60;;;;;;4997695;28;20023;-72
2023/04/03 02:26:56;;;;;;;2.97;2.03;;;9.90;50.70;;;;;;4997703;28;20539;-71
2023/04/03 02:29:23;;;;;;;2.90;1.80;;;9.90;51.00;;;;;;4997725;28;20030;-73
2023/04/03 02:31:50;;;;;;;3.53;2.00;;;10.00;51.30;;;;;;4997635;28;20030;-73
2023/04/03 02:34:16;;;;;;;2.60;2.00;;;10.00;51.30;;;;;;4979533;28;20555;-72
2023/04/03 02:36:42;;;;;;;3.58;2.30;;;10.00;51.20;;;;;;4980092;28;20030;-73
2023/04/03 02:39:08;;;;;;;5.15;2.72;;;10.00;50.70;;;;;;4997474;28;20031;-72
2023/04/03 02:41:36;;;;;;;4.10;2.28;;;10.00;50.70;;;;;;4997278;28;20030;-72
2023/04/03 02:44:05;;;;;;;3.22;2.30;;;10.00;50.70;;;;;;4997451;28;20102;-73
2023/04/03 02:46:32;;;;;;;3.85;2.38;;;10.00;50.70;;;;;;4997411;28;20076;-72
2023/04/03 02:48:57;;;;;;;4.75;2.50;;;9.90;50.50;;;;;;4979860;28;20439;-73
2023/04/03 02:51:23;;;;;;;4.55;2.70;;;9.90;50.30;;;;;;4997025;28;20034;-73
2023/04/03 02:53:50;;;;;;;3.58;2.47;;;9.80;50.00;;;;;;4997293;28;20027;-73
2023/04/03 02:56:17;;;;;;;5.20;1.98;;;9.80;50.30;;;;;;4997222;28;20056;-72
2023/04/03 02:58:44;;;;;;;3.95;2.63;;;9.80;50.70;;;;;;4997232;28;20041;-71
2023/04/03 03:01:10;;;;;;;4.13;2.25;;;9.80;50.70;;;;;;4997215;28;20109;-72
2023/04/03 03:03:36;;;;;;;3.42;2.30;;;9.80;50.60;;;;;;4997093;28;20523;-73
2023/04/03 03:06:13;;;;;;;6.00;2.35;;;9.80;50.60;;;;;;4997005;28;20022;-72
2023/04/03 03:08:40;;;;;;;3.47;2.25;;;9.80;50.90;;;;;;4997225;28;20427;-73
2023/04/03 03:11:06;;;;;;;3.85;2.47;;;9.80;51.10;;;;;;4997202;28;20029;-72
2023/04/03 03:13:32;;;;;;;3.70;2.13;;;9.80;51.20;;;;;;4996783;28;20089;-72
2023/04/03 03:15:58;;;;;;;3.55;2.20;;;9.80;51.00;;;;;;4997025;28;20018;-73
2023/04/03 03:18:24;;;;;;;4.13;2.40;;;9.90;51.00;;;;;;4996583;28;20030;-73
2023/04/03 03:20:58;;;;;;;8.07;3.38;;;9.90;51.00;;;;;;4979764;28;20026;-73
2023/04/03 03:23:26;;;;;;;4.30;2.40;;;9.90;50.40;;;;;;4980156;28;20044;-73
2023/04/03 03:26:00;;;;;;;4.80;2.42;;;9.80;50.40;;;;;;4998369;28;20030;-72
2023/04/03 03:28:26;;;;;;;;;;;9.90;50.70;;;;;;4980902;28;20041;-72
2023/04/03 03:30:52;;;;;;;4.82;2.72;;;9.90;51.30;;;;;;4997788;28;20367;-74
2023/04/03 03:33:18;;;;;;;6.07;3.05;;;9.90;50.60;;;;;;4979863;28;20026;-72
2023/04/03 03:35:44;;;;;;;6.03;3.00;;;9.80;50.20;;;;;;4996530;28;20487;-73
2023/04/03 03:38:10;;;;;;;6.00;2.67;;;9.80;50.30;;;;;;4996348;28;20031;-72
2023/04/03 03:40:36;;;;;;;8.85;3.05;;;9.70;50.30;;;;;;4996028;28;20113;-73
2023/04/03 03:43:02;;;;;;;7.00;3.28;;;9.60;50.30;;;;;;4978711;28;20097;-73
2023/04/03 03:45:28;;;;;;;5.88;2.97;;;9.60;50.30;;;;;;4978832;28;20018;-72
2023/04/03 03:47:54;;;;;;;7.47;3.03;;;9.50;50.00;;;;;;4996282;28;20475;-73
2023/04/03 03:50:20;;;;;;;4.80;3.25;;;9.40;50.20;;;;;;4995768;28;20023;-73
2023/04/03 03:52:46;;;;;;;4.57;2.88;;;9.40;50.50;;;;;;4995867;28;20546;-72
2023/04/03 03:55:12;;;;;;;6.18;3.20;;;9.30;50.70;;;;;;4996128;28;20038;-73
2023/04/03 03:57:38;;;;;;;6.65;3.22;;;9.30;50.70;;;;;;4995836;28;20113;-72
2023/04/03 04:00:04;;;;;;;5.35;3.33;;;9.30;50.80;;;;;;4996295;28;20105;-73
2023/04/03 04:02:30;;;;;;;5.35;3.17;;;9.20;51.00;;;;;;4995990;28;20105;-72
2023/04/03 04:04:56;;;;;;;5.40;3.30;;;9.20;51.30;;;;;;4995895;28;20532;-73
2023/04/03 04:07:22;;;;;;;5.55;3.65;;;9.20;51.50;;;;;;4995832;28;20029;-72
2023/04/03 04:09:48;;;;;;;5.22;2.78;;;9.10;51.50;;;;;;4995877;28;20064;-73
2023/04/03 04:12:14;;;;;;;10.85;3.03;;;9.10;51.60;;;;;;4978285;28;20026;-72
2023/04/03 04:14:40;;;;;;;6.35;2.88;;;9.10;51.80;;;;;;4995606;28;20026;-73
2023/04/03 04:17:06;;;;;;;7.55;3.63;;;9.10;51.90;;;;;;4995638;28;20023;-72
2023/04/03 04:19:33;;;;;;;8.60;4.00;;;9.10;51.80;;;;;;4995168;28;20125;-72
2023/04/03 04:21:58;;;;;;;4.70;3.05;;;9.10;51.80;;;;;;4977650;28;20026;-73
2023/04/03 04:24:24;;;;;;;5.43;3.28;;;9.10;51.80;;;;;;4995502;28;20390;-72
2023/04/03 04:26:50;;;;;;;9.55;3.55;;;9.10;52.00;;;;;;4995378;28;20029;-73
2023/04/03 04:29:16;;;;;;;6.55;4.28;;;9.10;51.90;;;;;;4995287;28;20072;-73
2023/04/03 04:31:42;;;;;;;6.05;3.28;;;9.10;51.80;;;;;;4995789;28;20400;-72
2023/04/03 04:34:08;;;;;;;4.60;3.15;;;9.20;51.90;;;;;;4977635;28;20085;-73
2023/04/03 04:36:33;;;;;;;6.85;3.95;;;9.20;52.00;;;;;;4995524;28;20027;-72
2023/04/03 04:38:59;;;;;;;5.35;3.08;;;9.20;52.20;;;;;;4995284;28;20388;-73
2023/04/03 04:41:25;;;;;;;7.30;3.65;;;9.20;52.30;;;;;;4977597;28;20030;-72
2023/04/03 04:43:52;;;;;;;4.80;3.17;;;9.20;52.00;;;;;;4995231;28;20033;-73
2023/04/03 04:46:18;;;;;;;6.47;3.22;;;9.30;52.20;;;;;;4995648;28;20050;-73
2023/04/03 04:48:44;;;;;;;7.65;3.28;;;9.30;52.20;;;;;;4977461;28;20391;-72
2023/04/03 04:51:11;;;;;;;6.65;3.42;;;9.20;51.90;;;;;;4994708;28;20030;-72
2023/04/03 04:53:37;;;;;;;9.18;3.50;;;9.20;51.80;;;;;;4994567;28;20369;-73
2023/04/03 04:56:03;;;;;;;8.77;3.67;;;9.20;51.80;;;;;;4994889;28;20384;-73
2023/04/03 04:58:29;;;;;;;6.57;3.30;;;9.20;51.80;;;;;;4994669;28;20033;-73
2023/04/03 05:01:06;;;;;;;7.50;3.13;;;9.20;51.90;;;;;;4994631;28;20030;-72
2023/04/03 05:03:32;;;;;;;5.95;3.22;;;9.20;52.20;;;;;;4995455;28;20350;-73
2023/04/03 05:05:59;;;;;;;5.60;3.50;;;9.20;52.30;;;;;;4994582;28;20045;-72
2023/04/03 05:08:25;;;;;;;4.13;2.83;;;9.30;52.60;;;;;;4976953;28;20022;-73
2023/04/03 05:10:52;;;;;;;4.95;2.90;;;9.30;52.20;;;;;;4994619;28;20396;-72
2023/04/03 05:13:19;;;;;;;4.90;3.20;;;9.30;51.80;;;;;;4976787;28;20035;-72
2023/04/03 05:15:45;;;;;;;7.00;2.72;;;9.20;51.70;;;;;;4994322;28;20061;-72
2023/04/03 05:18:11;;;;;;;5.43;2.70;;;9.20;51.70;;;;;;4993877;28;20395;-73
2023/04/03 05:20:37;;;;;;;4.53;2.70;;;9.20;51.40;;;;;;4994266;28;20026;-72
2023/04/03 05:23:03;;;;;;;6.57;3.00;;;9.20;51.40;;;;;;4994588;28;20046;-73
2023/04/03 05:25:29;;;;;;;3.95;2.60;;;9.20;51.30;;;;;;4994486;28;20046;-73
2023/04/03 05:27:55;;;;;;;7.75;3.13;;;9.20;51.40;;;;;;4994047;28;20018;-72
2023/04/03 05:30:21;;;;;;;4.40;3.08;;;9.20;51.70;;;;;;4993738;28;20030;-73
2023/04/03 05:32:47;;;;;;;14.98;4.03;;;9.30;51.50;;;;;;4976811;28;20037;-73
2023/04/03 05:35:14;;;;;;;9.48;3.22;;;9.30;51.40;;;;;;4993532;28;20050;-73
2023/04/03 05:37:40;;;;;;;5.25;2.90;;;9.30;51.20;;;;;;4976723;28;20455;-72
2023/04/03 05:40:07;;;;;;;6.20;3.22;;;9.30;51.40;;;;;;4976480;28;20080;-72
2023/04/03 05:42:33;;;;;;;6.10;2.95;;;9.40;51.60;;;;;;4993257;28;20503;-73
2023/04/03 05:44:59;;;;;;;6.00;2.97;;;9.40;51.40;;;;;;4976420;28;20062;-72
2023/04/03 05:47:25;;;;;;;7.13;2.85;;;9.50;51.30;;;;;;4993805;28;20023;-72
2023/04/03 05:49:51;;;;;;;5.93;3.40;;;9.40;51.00;;;;;;4994069;28;20535;-72
2023/04/03 05:52:31;;;;;;;9.25;3.25;;;9.40;51.00;;;;;;4995458;28;20101;-73
2023/04/03 05:54:57;;;;;;;5.22;3.13;;;9.40;50.80;;;;;;4985415;28;20037;-72
2023/04/03 05:57:23;;;;;;;5.60;3.00;;;9.50;50.80;;;;;;4992269;28;20106;-72
2023/04/03 05:59:49;;;;;;;7.70;3.20;;;9.40;50.50;;;;;;4976333;28;20476;-73
2023/04/03 06:02:18;;;;;;;8.93;3.30;;;9.40;50.80;;;;;;4993142;28;20035;-73
2023/04/03 06:04:45;;;;;;;5.88;2.58;;;9.50;50.70;;;;;;4993750;28;20026;-72
2023/04/03 06:07:17;;;;;;;8.88;3.22;;;9.50;50.70;;;;;;4993771;28;20033;-72
2023/04/03 06:09:43;;;;;;;7.97;3.30;;;9.50;50.80;;;;;;4993323;28;20030;-72
2023/04/03 06:12:09;;;;;;;9.60;3.22;;;9.50;50.50;;;;;;4993678;28;20036;-72
2023/04/03 06:14:35;;;;;;;9.68;2.92;;;9.50;50.20;;;;;;4976713;28;20027;-72
2023/04/03 06:17:01;;;;;;;9.13;3.22;;;9.40;49.90;;;;;;4993535;28;20027;-73
2023/04/03 06:19:28;;;;;;;8.80;2.97;;;9.40;50.10;;;;;;4993738;28;20081;-72
2023/04/03 06:21:54;;;;;;;4.72;3.00;;;9.40;50.70;;;;;;4993173;28;20030;-71
2023/04/03 06:24:22;;;;;;;9.23;2.80;;;9.40;50.50;;;;;;4993459;28;20077;-72
2023/04/03 06:26:49;;;;;;;6.80;3.42;;;9.40;50.80;;;;;;4993369;28;20019;-72
2023/04/03 06:29:15;;;;;;;5.88;3.15;;;9.30;50.60;;;;;;4993114;28;20022;-72
2023/04/03 06:31:41;;;;;;;23.70;11.93;;;9.30;51.00;;;;;;4993526;28;20106;-71
2023/04/03 06:34:07;;;;;;;6.55;3.35;;;9.30;51.30;;;;;;4993596;28;20038;-72
2023/04/03 06:36:33;;;;;;;9.23;3.40;;;9.30;51.80;;;;;;4993197;28;20081;-73
2023/04/03 06:38:59;;;;;;;9.68;3.08;;;9.30;52.10;;;;;;4993057;28;20026;-72
2023/04/03 06:41:26;;;;;;;7.95;3.40;;;9.30;52.10;;;;;;4993144;28;20026;-72
2023/04/03 06:43:52;;;;;;;7.82;3.35;;;9.30;52.10;;;;;;4975464;28;20038;-72
2023/04/03 06:46:20;;;;;;;3.42;2.38;;;9.30;52.50;;;;;;4993593;28;20403;-72
2023/04/03 06:48:49;;;;;;;5.20;2.90;;;9.40;52.80;;;;;;4993213;28;20029;-72
2023/04/03 06:51:20;;;;;;;3.88;2.60;;;9.50;52.90;;;;;;4993547;28;20085;-72
2023/04/03 06:53:47;;;;;;;5.10;2.75;;;9.50;52.80;;;;;;4994906;28;20034;-72
2023/04/03 06:56:13;;;;;;;6.15;3.65;;;9.60;52.60;;;;;;4979724;28;20073;-73
2023/04/03 06:58:40;;;;;;;6.15;3.00;;;9.60;52.80;;;;;;4979554;28;20030;-72
2023/04/03 07:01:06;;;;;;;6.25;3.00;;;9.60;53.00;;;;;;4996788;28;20026;-73
2023/04/03 07:03:32;;;;;;;5.35;3.05;;;9.60;53.00;;;;;;4979061;28;20069;-73
2023/04/03 07:05:58;;;;;;;7.70;3.05;;;9.70;53.00;;;;;;4997507;28;20023;-74
2023/04/03 07:08:25;;;;;;;4.85;2.92;;;9.80;53.20;;;;;;4996917;28;20026;-73
2023/04/03 07:10:51;;;;;;;6.97;3.30;;;9.90;53.20;;;;;;4997200;28;20030;-73
2023/04/03 07:13:17;;;;;;;5.68;2.60;;;9.90;53.10;;;;;;4996926;28;20034;-73
2023/04/03 07:15:43;;;;;;;5.07;2.70;;;10.00;52.90;;;;;;4996819;28;20439;-73
2023/04/03 07:18:10;;;;;;;4.93;2.85;;;10.00;52.60;;;;;;4996923;28;20438;-72
2023/04/03 07:20:36;;;;;;;6.97;3.40;;;9.90;52.30;;;;;;4978936;28;20038;-73
2023/04/03 07:23:02;;;;;;;11.25;3.40;;;9.80;52.90;;;;;;4996669;28;20029;-73
2023/04/03 07:25:28;;;;;;;5.43;2.65;;;9.80;53.80;;;;;;4996314;28;20379;-73
2023/04/03 07:27:54;;;;;;;17.08;3.33;;;9.70;54.10;;;;;;4996496;28;20105;-73
2023/04/03 07:30:21;;;;;;;14.90;3.63;;;9.60;53.80;;;;;;4996295;28;20041;-73
2023/04/03 07:32:47;;;;;;;7.18;2.92;;;9.50;54.00;;;;;;4996158;28;20026;-73
2023/04/03 07:35:13;;;;;;;4.07;1.85;;;9.40;54.00;;;;;;4996155;28;20412;-73
2023/04/03 07:37:39;;;;;;;7.22;2.70;;;9.20;53.30;;;;;;4995264;28;20356;-74
2023/04/03 07:40:06;;;;;;;8.38;2.85;;;9.00;53.60;;;;;;4994311;28;20494;-73
2023/04/03 07:42:32;;;;;;;5.35;2.58;;;9.00;54.00;;;;;;4995323;28;20455;-73
2023/04/03 07:44:58;;;;;;;3.63;2.40;;;8.90;54.20;;;;;;4996218;28;20041;-73
2023/04/03 07:47:24;;;;;;;4.95;2.67;;;8.90;54.60;;;;;;4996321;28;20431;-72
2023/04/03 07:49:50;;;;;;;6.60;2.47;;;8.90;54.80;;;;;;4996223;28;20019;-73
2023/04/03 07:52:16;;;;;;;2.47;1.83;;;9.00;55.10;;;;;;4978474;28;20035;-73
2023/04/03 07:54:42;;;;;;;3.35;2.40;;;9.00;55.20;;;;;;4996393;28;20050;-73
2023/04/03 07:57:08;;;;;;;3.67;2.05;;;9.10;55.30;;;;;;4995861;28;20088;-72
2023/04/03 07:59:34;;;;;;;7.97;3.28;;;9.20;55.30;;;;;;4995873;28;20364;-72
2023/04/03 08:02:00;;;;;;;6.35;2.53;;;9.30;55.20;;;;;;4995599;28;20069;-73
2023/04/03 08:04:26;;;;;;;7.03;3.50;;;9.50;55.20;;;;;;4995998;28;20380;-73
2023/04/03 08:06:52;;;;;;;5.57;2.47;;;9.60;54.60;;;;;;4977734;28;20030;-72
2023/04/03 08:09:19;;;;;;;4.45;2.47;;;9.60;54.10;;;;;;4978331;28;20026;-73
2023/04/03 08:11:45;;;;;;;5.38;2.60;;;9.80;54.10;;;;;;4995420;28;20030;-73
2023/04/03 08:14:16;;;;;;;4.35;2.30;;;9.90;53.50;;;;;;4978134;28;20126;-72
2023/04/03 08:16:43;;;;;;;5.15;2.40;;;9.90;52.80;;;;;;4995587;28;20479;-72
2023/04/03 08:19:10;;;;;;;5.15;2.33;;;10.00;53.00;;;;;;4977922;28;20057;-72
2023/04/03 08:21:36;;;;;;;5.65;2.75;;;10.20;53.30;;;;;;4995529;28;20026;-73
2023/04/03 08:24:03;;;;;;;5.82;2.75;;;10.20;52.70;;;;;;4995801;28;20097;-72
2023/04/03 08:26:29;;;;;;;5.93;2.83;;;10.40;52.70;;;;;;4995523;28;20104;-72
2023/04/03 08:28:54;;;;;;;4.35;2.38;;;10.50;52.90;;;;;;4995133;28;20492;-72
2023/04/03 08:31:20;;;;;;;8.75;2.30;;;10.70;52.90;;;;;;4995118;28;20066;-72
2023/04/03 08:33:47;;;;;;;6.15;2.85;;;10.80;51.80;;;;;;4995003;28;20487;-72
2023/04/03 08:36:27;;;;;;;8.57;2.58;;;10.90;50.60;;;;;;4978084;28;20080;-74
2023/04/03 08:38:54;;;;;;;7.82;2.42;;;11.00;51.20;;;;;;4977689;28;20476;-71
2023/04/03 08:41:40;;;;;;;4.75;2.08;;;11.10;49.40;;;;;;4994936;28;20041;-73
2023/04/03 08:44:35;;;;;;;20.30;13.65;;;11.00;44.30;;;;;;4995204;28;20065;-73
2023/04/03 08:47:18;;;;;;;5.18;2.28;;;10.80;46.30;;;;;;4995251;28;20023;-73
2023/04/03 08:49:55;;;;;;;6.05;2.30;;;10.80;46.70;;;;;;4995122;28;20488;-73
2023/04/03 08:52:45;;;;;;;20.98;2.50;;;10.80;45.20;;;;;;4958375;28;20058;-73
2023/04/03 08:55:31;;;;;;;3.13;1.73;;;10.80;45.00;;;;;;4976287;28;20027;-73
2023/04/03 08:58:18;;;;;;;9.38;2.40;;;10.90;46.70;;;;;;4994560;28;20081;-74
2023/04/03 09:00:50;;;;;;;5.00;2.00;;;11.00;44.20;;;;;;4995138;28;20027;-73
2023/04/03 09:03:19;;;;;;;13.57;2.30;;;10.90;43.80;;;;;;4977306;28;20019;-74
2023/04/03 09:05:48;;;;;;;10.80;2.10;;;10.90;43.80;;;;;;4994693;28;20077;-74
2023/04/03 09:08:25;;;;;;;3.97;1.80;;;10.90;43.80;;;;;;4994746;28;20022;-73
2023/04/03 09:11:23;;;;;;;8.73;2.00;;;10.90;44.30;;;;;;4994439;28;20145;-70
2023/04/03 09:13:52;;;;;;;3.58;1.98;;;11.00;44.50;;;;;;4975328;28;20034;-73
2023/04/03 09:16:33;;;;;;;4.93;2.22;;;11.10;45.70;;;;;;4987550;28;20022;-73
2023/04/03 09:19:20;;;;;;;7.78;2.35;;;11.10;42.60;;;;;;4993877;28;20022;-73
2023/04/03 09:21:46;;;;;;;10.48;2.03;;;11.00;41.70;;;;;;4994328;28;20023;-73
2023/04/03 09:24:14;;;;;;;5.10;2.38;;;10.90;41.70;;;;;;4976956;28;20026;-73
2023/04/03 09:27:02;;;;;;;4.95;2.35;;;10.80;42.20;;;;;;4993872;28;20034;-72
2023/04/03 09:29:28;;;;;;;6.07;2.55;;;10.70;42.80;;;;;;4977008;28;20018;-73
2023/04/03 09:32:09;;;;;;;6.10;2.17;;;10.70;43.00;;;;;;4994167;28;20384;-73
2023/04/03 09:34:41;;;;;;;5.55;2.45;;;10.70;40.70;;;;;;4994067;28;20546;-73
2023/04/03 09:37:08;;;;;;;3.33;1.67;;;10.60;40.60;;;;;;4994481;28;20027;-72
2023/04/03 09:39:53;;;;;;;7.88;2.40;;;10.60;40.30;;;;;;4994237;28;20026;-73
2023/04/03 09:42:24;;;;;;;17.52;4.88;;;10.50;41.60;;;;;;4993623;28;20027;-73
2023/04/03 09:44:58;;;;;;;7.43;2.47;;;10.60;41.80;;;;;;4993812;28;20018;-73
2023/04/03 09:47:33;;;;;;;9.05;2.30;;;10.60;41.90;;;;;;4976571;28;20030;-73
2023/04/03 09:50:23;;;;;;;9.32;2.38;;;10.60;41.70;;;;;;4994066;28;20472;-72
2023/04/03 09:52:51;;;;;;;4.45;1.80;;;10.60;40.40;;;;;;4994128;28;20030;-73
2023/04/03 09:55:44;;;;;;;6.50;2.10;;;10.50;40.60;;;;;;4993567;28;20026;-73
2023/04/03 09:58:40;;;;;;;4.70;2.03;;;10.50;40.50;;;;;;4974666;28;20455;-74
2023/04/03 10:01:06;;;;;;;4.50;1.80;;;10.50;41.80;;;;;;4993446;28;20022;-71
2023/04/03 10:03:35;;;;;;;11.32;1.90;;;10.50;40.40;;;;;;4993411;28;20050;-73
2023/04/03 10:06:03;;;;;;;5.68;2.30;;;10.50;40.90;;;;;;4993557;28;20072;-72
2023/04/03 10:08:34;;;;;;;6.00;1.92;;;10.50;40.50;;;;;;4993805;28;20102;-71
2023/04/03 10:11:14;;;;;;;6.60;2.10;;;10.50;39.60;;;;;;4993253;28;20109;-72
2023/04/03 10:13:55;;;;;;;6.57;2.15;;;10.50;39.30;;;;;;4993533;28;20023;-72
2023/04/03 10:16:27;;;;;;;8.48;2.45;;;10.50;38.40;;;;;;4993704;28;20023;-72
2023/04/03 10:18:55;;;;;;;3.13;1.77;;;10.40;39.10;;;;;;4993608;28;20072;-72
2023/04/03 10:21:25;;;;;;;6.10;1.95;;;10.50;40.50;;;;;;4993652;28;20030;-73
2023/04/03 10:24:11;;;;;;;3.85;2.20;;;10.50;39.90;;;;;;4993746;28;20015;-73
2023/04/03 10:26:37;;;;;;;4.05;2.15;;;10.40;40.20;;;;;;4975676;28;20034;-72
2023/04/03 10:29:33;;;;;;;5.90;2.15;;;10.40;40.70;;;;;;4995273;28;20022;-73
2023/04/03 10:32:17;;;;;;;6.00;2.22;;;10.50;41.60;;;;;;4997733;28;20541;-73
2023/04/03 10:34:44;;;;;;;4.55;1.90;;;10.60;41.40;;;;;;4997318;28;20142;-73
2023/04/03 10:37:20;;;;;;;8.45;2.33;;;10.70;40.80;;;;;;4980019;28;20046;-72
2023/04/03 10:39:56;;;;;;;5.53;2.25;;;10.70;38.90;;;;;;4997166;28;20057;-73
2023/04/03 10:42:52;;;;;;;3.70;2.03;;;10.60;39.00;;;;;;4997173;28;20027;-73
2023/04/03 10:45:24;;;;;;;5.32;2.20;;;10.50;39.10;;;;;;4997372;28;20014;-73
2023/04/03 10:47:55;;;;;;;8.48;3.05;;;10.60;40.10;;;;;;4997179;28;20030;-72
2023/04/03 10:50:24;;;;;;;4.57;2.03;;;10.60;40.10;;;;;;4996723;28;20153;-72
2023/04/03 10:53:32;;;;;;;4.95;1.90;;;10.70;40.30;;;;;;4996617;28;20113;-73
2023/04/03 10:56:12;;;;;;;4.50;1.90;;;10.70;40.00;;;;;;4955004;28;20039;-73
2023/04/03 10:58:45;;;;;;;6.18;2.30;;;10.70;39.40;;;;;;4997051;28;20027;-74
2023/04/03 11:01:21;;;;;;;7.45;2.78;;;10.60;39.50;;;;;;4997054;28;20050;-73
2023/04/03 11:03:57;;;;;;;6.45;2.85;;;10.60;39.60;;;;;;4997275;28;20023;-73
2023/04/03 11:06:28;;;;;;;7.15;2.33;;;10.50;39.90;;;;;;4996496;28;20030;-73
2023/04/03 11:09:03;;;;;;;5.05;1.95;;;10.40;39.60;;;;;;4996647;28;20085;-74
2023/04/03 11:11:35;;;;;;;5.90;2.15;;;10.30;39.30;;;;;;4996603;28;20034;-73
2023/04/03 11:14:36;;;;;;;5.07;2.25;;;10.30;39.50;;;;;;4996927;28;20067;-72
2023/04/03 11:17:26;;;;;;;5.20;2.28;;;10.20;40.00;;;;;;4996918;28;20023;-73
2023/04/03 11:19:56;;;;;;;5.10;2.40;;;10.20;40.80;;;;;;4997109;28;20404;-73
2023/04/03 11:22:40;;;;;;;7.45;2.90;;;10.20;41.00;;;;;;4996879;28;20030;-73
2023/04/03 11:25:10;;;;;;;4.25;1.92;;;10.10;41.10;;;;;;4996310;28;20015;-73
2023/04/03 11:27:46;;;;;;;5.53;2.80;;;10.20;41.00;;;;;;4979067;28;20033;-73
2023/04/03 11:31:02;;;;;;;5.93;2.38;;;10.20;41.30;;;;;;4996179;28;20382;-72
2023/04/03 11:34:10;;;;;;;4.70;2.50;;;10.20;40.20;;;;;;4970955;28;20034;-73
2023/04/03 11:37:05;;;;;;;7.78;2.35;;;10.30;40.00;;;;;;4996281;28;20392;-73
2023/04/03 11:39:47;;;;;;;4.22;2.17;;;10.30;40.00;;;;;;4964882;28;20503;-73
2023/04/03 11:42:38;;;;;;;4.97;2.20;;;10.40;40.00;;;;;;4989798;28;20054;-72
2023/04/03 11:45:23;;;;;;;6.07;2.00;;;10.50;39.40;;;;;;4974334;28;20022;-73
2023/04/03 11:47:55;;;;;;;4.70;2.05;;;10.50;37.80;;;;;;4995031;28;20081;-75
2023/04/03 11:50:38;;;;;;;3.70;1.92;;;10.60;38.00;;;;;;4995306;28;20084;-75
2023/04/03 11:53:07;;;;;;;4.38;2.05;;;10.50;37.60;;;;;;4988423;28;20085;-75
2023/04/03 11:55:33;;;;;;;4.05;1.90;;;10.50;37.40;;;;;;4990456;28;20121;-73
2023/04/03 11:58:02;;;;;;;6.43;2.10;;;10.50;37.00;;;;;;4995354;28;20404;-74
2023/04/03 12:01:02;;;;;;;11.20;4.50;;;10.50;37.00;;;;;;4990739;28;20452;-73
2023/04/03 12:03:31;;;;;;;5.18;2.30;;;10.60;37.60;;;;;;4993631;28;20455;-74
2023/04/03 12:06:17;;;;;;;4.65;2.28;;;10.60;36.90;;;;;;4994385;28;20029;-74
2023/04/03 12:08:45;;;;;;;6.88;2.70;;;10.60;37.00;;;;;;4988588;28;20157;-73
2023/04/03 12:11:13;;;;;;;4.93;2.10;;;10.60;37.00;;;;;;4995506;28;20014;-73
2023/04/03 12:13:57;;;;;;;5.65;2.10;;;10.60;36.30;;;;;;4978160;28;20035;-73
2023/04/03 12:16:38;;;;;;;6.55;2.22;;;10.60;36.00;;;;;;4978286;28;20099;-73
2023/04/03 12:19:32;;;;;;;4.60;2.15;;;10.50;36.20;;;;;;4977786;28;20041;-73
2023/04/03 12:21:59;;;;;;;3.70;1.97;;;10.50;36.40;;;;;;4995508;28;20361;-73
2023/04/03 12:24:40;;;;;;;3.65;1.90;;;10.60;36.60;;;;;;4995156;28;20348;-73
2023/04/03 12:27:05;;;;;;;4.68;2.13;;;10.60;36.40;;;;;;4993079;28;20050;-73
2023/04/03 12:29:34;;;;;;;4.72;2.10;;;10.60;36.80;;;;;;4994812;28;20112;-73
2023/04/03 12:32:19;;;;;;;3.22;1.90;;;10.60;35.80;;;;;;4995051;28;20030;-73
2023/04/03 12:34:45;;;;;;;4.55;2.17;;;10.70;35.60;;;;;;4977368;28;20050;-73
2023/04/03 12:37:35;;;;;;;6.40;2.40;;;10.70;35.40;;;;;;4994684;28;20032;-73
2023/04/03 12:40:07;;;;;;;3.65;1.95;;;10.70;35.40;;;;;;4994999;28;20427;-73
2023/04/03 12:43:04;;;;;;;4.43;1.92;;;10.80;35.70;;;;;;4977278;28;20033;-73
2023/04/03 12:45:43;;;;;;;5.13;2.10;;;11.00;36.30;;;;;;4977279;28;20101;-73
2023/04/03 12:48:15;;;;;;;8.30;2.65;;;11.20;36.30;;;;;;4994472;28;20083;-73
2023/04/03 12:50:42;;;;;;;5.72;2.58;;;11.30;35.50;;;;;;4994890;28;20106;-73
2023/04/03 12:53:18;;;;;;;6.22;2.53;;;11.40;35.20;;;;;;4994246;28;20349;-73
2023/04/03 12:55:43;;;;;;;4.00;2.20;;;11.40;35.20;;;;;;4988665;28;20030;-74
2023/04/03 12:58:22;;;;;;;4.68;2.05;;;11.50;35.70;;;;;;4976577;28;20109;-75
2023/04/03 13:01:18;;;;;;;7.80;2.13;;;11.60;35.00;;;;;;4989953;28;20037;-74
2023/04/03 13:03:47;;;;;;;3.25;2.13;;;11.50;33.50;;;;;;4975192;28;20031;-77
2023/04/03 13:06:42;;;;;;;2.42;2.05;;;11.50;33.30;;;;;;4994474;28;20023;-76
2023/04/03 13:09:39;;;;;;;4.63;2.38;;;11.50;33.70;;;;;;4974502;28;20069;-77